KLM24F LFBO-EHAM
Flight info
| Callsign | KLM24F |
|---|---|
| Flight time | N/A |
| Altitude | 36000 |
| Route | FISTO DCT PERIG DCT ADABI DCT BOKNO UN858 VANAD UN874 ARSAF DCT EGOZE DCT CMB DCT VEKIN DCT ADUTO N873 FERDI/N0387F240 Y18 DENUT |
| Aircraft | B737/M-SDE2E3FGHIRWXY/LB1 |
Departure
| Time | 2026-05-06 17:58 |
|---|---|
| Airport | Toulouse-Blagnac Airport (LFBO) |
Arrival
| Time | N/A |
|---|---|
| Airport | Amsterdam Airport Schiphol (EHAM) |
| Time | Latitude | Longitude | Altitude | Speed | Heading |
|---|---|---|---|---|---|
| 2026-05-06 17:14 | 43.63131 | 1.37161 | 493 ft | 0 kts | 6° |
| 2026-05-06 17:41 | 43.63111 | 1.37158 | 485 ft | 4 kts | 5° |
| 2026-05-06 17:41 | 43.63084 | 1.37154 | 490 ft | 4 kts | 11° |
| 2026-05-06 17:41 | 43.63062 | 1.37145 | 483 ft | 2 kts | 27° |
| 2026-05-06 17:42 | 43.63040 | 1.37129 | 482 ft | 4 kts | 30° |
| 2026-05-06 17:42 | 43.63022 | 1.37108 | 487 ft | 4 kts | 83° |
| 2026-05-06 17:42 | 43.63024 | 1.37080 | 488 ft | 2 kts | 100° |
| 2026-05-06 17:42 | 43.63024 | 1.37078 | 488 ft | 0 kts | 100° |
| 2026-05-06 17:45 | 43.63024 | 1.37082 | 488 ft | 2 kts | 101° |
| 2026-05-06 17:45 | 43.63011 | 1.37129 | 484 ft | 8 kts | 123° |
| 2026-05-06 17:45 | 43.62954 | 1.37195 | 490 ft | 13 kts | 142° |
| 2026-05-06 17:46 | 43.62871 | 1.37282 | 493 ft | 17 kts | 142° |
| 2026-05-06 17:46 | 43.62778 | 1.37380 | 488 ft | 16 kts | 143° |
| 2026-05-06 17:46 | 43.62696 | 1.37464 | 490 ft | 14 kts | 143° |
| 2026-05-06 17:46 | 43.62618 | 1.37440 | 484 ft | 13 kts | 231° |
| 2026-05-06 17:47 | 43.62558 | 1.37347 | 490 ft | 13 kts | 211° |
| 2026-05-06 17:47 | 43.62480 | 1.37380 | 493 ft | 13 kts | 142° |
| 2026-05-06 17:47 | 43.62403 | 1.37461 | 491 ft | 15 kts | 143° |
| 2026-05-06 17:47 | 43.62322 | 1.37544 | 489 ft | 14 kts | 143° |
| 2026-05-06 17:48 | 43.62245 | 1.37624 | 490 ft | 14 kts | 143° |
| 2026-05-06 17:48 | 43.62172 | 1.37700 | 493 ft | 13 kts | 143° |
| 2026-05-06 17:48 | 43.62101 | 1.37774 | 493 ft | 13 kts | 143° |
| 2026-05-06 17:48 | 43.62031 | 1.37846 | 488 ft | 12 kts | 143° |
| 2026-05-06 17:49 | 43.61964 | 1.37916 | 490 ft | 12 kts | 143° |
| 2026-05-06 17:49 | 43.61898 | 1.37985 | 493 ft | 12 kts | 143° |
| 2026-05-06 17:49 | 43.61833 | 1.38052 | 487 ft | 11 kts | 143° |
| 2026-05-06 17:49 | 43.61776 | 1.38111 | 489 ft | 8 kts | 143° |
| 2026-05-06 17:50 | 43.61732 | 1.38157 | 493 ft | 8 kts | 143° |
| 2026-05-06 17:50 | 43.61681 | 1.38179 | 493 ft | 9 kts | 185° |
| 2026-05-06 17:50 | 43.61631 | 1.38121 | 490 ft | 11 kts | 237° |
| 2026-05-06 17:50 | 43.61588 | 1.38025 | 485 ft | 12 kts | 254° |
| 2026-05-06 17:51 | 43.61636 | 1.37941 | 489 ft | 12 kts | 325° |
| 2026-05-06 17:51 | 43.61702 | 1.37876 | 490 ft | 12 kts | 324° |
| 2026-05-06 17:51 | 43.61767 | 1.37812 | 487 ft | 11 kts | 323° |
| 2026-05-06 17:51 | 43.61838 | 1.37739 | 492 ft | 15 kts | 323° |
| 2026-05-06 17:52 | 43.61931 | 1.37645 | 487 ft | 18 kts | 323° |
| 2026-05-06 17:52 | 43.62032 | 1.37532 | 493 ft | 18 kts | 314° |
| 2026-05-06 17:52 | 43.62032 | 1.37435 | 487 ft | 11 kts | 236° |
| 2026-05-06 17:52 | 43.61988 | 1.37356 | 489 ft | 10 kts | 232° |
| 2026-05-06 17:53 | 43.61959 | 1.37303 | 491 ft | 2 kts | 232° |
| 2026-05-06 17:53 | 43.61958 | 1.37302 | 491 ft | 0 kts | 232° |
| 2026-05-06 17:56 | 43.61957 | 1.37299 | 485 ft | 1 kts | 232° |
| 2026-05-06 17:56 | 43.61941 | 1.37271 | 488 ft | 6 kts | 233° |
| 2026-05-06 17:57 | 43.61916 | 1.37200 | 490 ft | 10 kts | 281° |
| 2026-05-06 17:57 | 43.61974 | 1.37130 | 489 ft | 18 kts | 323° |
| 2026-05-06 17:57 | 43.62276 | 1.36807 | 493 ft | 93 kts | 321° |
| 2026-05-06 17:57 | 43.62967 | 1.36079 | 511 ft | 153 kts | 321° |
| 2026-05-06 17:58 | 43.63901 | 1.35223 | 1046 ft | 170 kts | 324° |
| 2026-05-06 17:58 | 43.64935 | 1.34302 | 1729 ft | 181 kts | 322° |
| 2026-05-06 17:58 | 43.66002 | 1.33316 | 2486 ft | 191 kts | 321° |
| 2026-05-06 17:58 | 43.67094 | 1.32104 | 2895 ft | 217 kts | 314° |
| 2026-05-06 17:59 | 43.68312 | 1.30661 | 3433 ft | 238 kts | 317° |
| 2026-05-06 17:59 | 43.69627 | 1.29218 | 4323 ft | 244 kts | 319° |
| 2026-05-06 17:59 | 43.70981 | 1.27775 | 5258 ft | 248 kts | 320° |
| 2026-05-06 17:59 | 43.72500 | 1.26569 | 6139 ft | 259 kts | 339° |
| 2026-05-06 18:00 | 43.74272 | 1.25972 | 7089 ft | 263 kts | 343° |
| 2026-05-06 18:00 | 43.76078 | 1.25396 | 8024 ft | 269 kts | 343° |
| 2026-05-06 18:00 | 43.77933 | 1.24928 | 9037 ft | 274 kts | 351° |
| 2026-05-06 18:00 | 43.79859 | 1.24800 | 10039 ft | 280 kts | 355° |
| 2026-05-06 18:01 | 43.81860 | 1.24763 | 10627 ft | 300 kts | 355° |
| 2026-05-06 18:01 | 43.84026 | 1.24730 | 10893 ft | 327 kts | 356° |
| 2026-05-06 18:01 | 43.86342 | 1.24691 | 11615 ft | 337 kts | 356° |
| 2026-05-06 18:01 | 43.88703 | 1.24643 | 12554 ft | 341 kts | 356° |
| 2026-05-06 18:02 | 43.91094 | 1.24584 | 13516 ft | 346 kts | 356° |
| 2026-05-06 18:02 | 43.93521 | 1.24514 | 14415 ft | 352 kts | 355° |
| 2026-05-06 18:02 | 43.95986 | 1.24437 | 15371 ft | 356 kts | 356° |
| 2026-05-06 18:02 | 43.98481 | 1.24356 | 16327 ft | 360 kts | 356° |
| 2026-05-06 18:03 | 44.00997 | 1.24272 | 17227 ft | 364 kts | 356° |
| 2026-05-06 18:03 | 44.03550 | 1.24185 | 18130 ft | 369 kts | 356° |
| 2026-05-06 18:03 | 44.06131 | 1.24097 | 18928 ft | 373 kts | 356° |
| 2026-05-06 18:03 | 44.08735 | 1.24008 | 19723 ft | 376 kts | 356° |
| 2026-05-06 18:04 | 44.11371 | 1.23919 | 20510 ft | 380 kts | 356° |
| 2026-05-06 18:04 | 44.14027 | 1.23828 | 21306 ft | 384 kts | 356° |
| 2026-05-06 18:04 | 44.16318 | 1.23750 | 21957 ft | 387 kts | 356° |
| 2026-05-06 18:05 | 44.18067 | 1.23690 | 22455 ft | 390 kts | 356° |
| 2026-05-06 18:05 | 44.20794 | 1.23596 | 23231 ft | 394 kts | 356° |
| 2026-05-06 18:05 | 44.23550 | 1.23501 | 23924 ft | 397 kts | 357° |
| 2026-05-06 18:06 | 44.26321 | 1.23404 | 24583 ft | 399 kts | 357° |
| 2026-05-06 18:06 | 44.29105 | 1.23304 | 25191 ft | 402 kts | 357° |
| 2026-05-06 18:06 | 44.31912 | 1.23202 | 25771 ft | 405 kts | 357° |
| 2026-05-06 18:06 | 44.34746 | 1.23102 | 26330 ft | 409 kts | 357° |
| 2026-05-06 18:07 | 44.37602 | 1.23002 | 26896 ft | 412 kts | 357° |
| 2026-05-06 18:07 | 44.40493 | 1.22899 | 27454 ft | 415 kts | 357° |
| 2026-05-06 18:07 | 44.43389 | 1.22796 | 28045 ft | 417 kts | 358° |
| 2026-05-06 18:07 | 44.46290 | 1.22631 | 28675 ft | 417 kts | 353° |
| 2026-05-06 18:08 | 44.49136 | 1.21827 | 29197 ft | 419 kts | 344° |
| 2026-05-06 18:08 | 44.51921 | 1.20734 | 29772 ft | 421 kts | 343° |
| 2026-05-06 18:08 | 44.54743 | 1.19548 | 30196 ft | 424 kts | 342° |
| 2026-05-06 18:08 | 44.57580 | 1.18352 | 30551 ft | 428 kts | 342° |
| 2026-05-06 18:09 | 44.60452 | 1.17165 | 30929 ft | 430 kts | 342° |
| 2026-05-06 18:09 | 44.63334 | 1.16001 | 31397 ft | 430 kts | 342° |
| 2026-05-06 18:09 | 44.66215 | 1.14856 | 31900 ft | 429 kts | 342° |
| 2026-05-06 18:09 | 44.69096 | 1.13719 | 32257 ft | 431 kts | 343° |
| 2026-05-06 18:10 | 44.71997 | 1.12581 | 32610 ft | 433 kts | 343° |
| 2026-05-06 18:10 | 44.74900 | 1.11444 | 33048 ft | 433 kts | 343° |
| 2026-05-06 18:10 | 44.77810 | 1.10303 | 33507 ft | 433 kts | 342° |
| 2026-05-06 18:10 | 44.80678 | 1.09175 | 33917 ft | 434 kts | 342° |
| 2026-05-06 18:11 | 44.83596 | 1.08026 | 34273 ft | 435 kts | 342° |
| 2026-05-06 18:11 | 44.85564 | 1.07252 | 34496 ft | 436 kts | 342° |
| 2026-05-06 18:11 | 44.89435 | 1.05726 | 34903 ft | 437 kts | 342° |
| 2026-05-06 18:11 | 44.92372 | 1.04567 | 35207 ft | 438 kts | 342° |
| 2026-05-06 18:12 | 44.95312 | 1.03404 | 35511 ft | 438 kts | 342° |
| 2026-05-06 18:12 | 44.98254 | 1.02240 | 35818 ft | 439 kts | 342° |
| 2026-05-06 18:12 | 45.01206 | 1.01069 | 35920 ft | 445 kts | 342° |
| 2026-05-06 18:12 | 45.04198 | 0.99882 | 35928 ft | 446 kts | 342° |
| 2026-05-06 18:13 | 45.10144 | 0.97521 | 35909 ft | 440 kts | 342° |
| 2026-05-06 18:13 | 45.16069 | 0.95458 | 35926 ft | 439 kts | 346° |
| 2026-05-06 18:14 | 45.22068 | 0.93736 | 35954 ft | 440 kts | 347° |
| 2026-05-06 18:14 | 45.27063 | 0.92314 | 35945 ft | 441 kts | 346° |
| 2026-05-06 18:15 | 45.33075 | 0.90561 | 35943 ft | 441 kts | 346° |
| 2026-05-06 18:15 | 45.40076 | 0.88480 | 35931 ft | 442 kts | 346° |
| 2026-05-06 18:16 | 45.45120 | 0.86972 | 35935 ft | 443 kts | 346° |
| 2026-05-06 18:16 | 45.51114 | 0.85176 | 35921 ft | 443 kts | 346° |
| 2026-05-06 18:17 | 45.57158 | 0.83363 | 35913 ft | 443 kts | 346° |
| 2026-05-06 18:17 | 45.63179 | 0.81553 | 35923 ft | 442 kts | 346° |
| 2026-05-06 18:18 | 45.69199 | 0.79739 | 35923 ft | 441 kts | 346° |
| 2026-05-06 18:18 | 45.75196 | 0.77928 | 35924 ft | 440 kts | 346° |
| 2026-05-06 18:19 | 45.81158 | 0.76125 | 35920 ft | 439 kts | 346° |
| 2026-05-06 18:19 | 45.87122 | 0.74316 | 35920 ft | 437 kts | 346° |
| 2026-05-06 18:20 | 45.93066 | 0.72509 | 35925 ft | 435 kts | 346° |
| 2026-05-06 18:20 | 45.98980 | 0.70707 | 35934 ft | 434 kts | 346° |
| 2026-05-06 18:21 | 46.04882 | 0.68905 | 35927 ft | 433 kts | 346° |
| 2026-05-06 18:21 | 46.10776 | 0.67102 | 35929 ft | 433 kts | 346° |
| 2026-05-06 18:22 | 46.16634 | 0.65306 | 35936 ft | 433 kts | 346° |
| 2026-05-06 18:22 | 46.22522 | 0.63496 | 35944 ft | 433 kts | 346° |
| 2026-05-06 18:23 | 46.28417 | 0.61681 | 35941 ft | 433 kts | 346° |
| 2026-05-06 18:23 | 46.34321 | 0.59858 | 35938 ft | 434 kts | 346° |
| 2026-05-06 18:24 | 46.40230 | 0.58030 | 35945 ft | 434 kts | 346° |
| 2026-05-06 18:24 | 46.46156 | 0.56193 | 35966 ft | 435 kts | 346° |
| 2026-05-06 18:25 | 46.52094 | 0.54348 | 35962 ft | 437 kts | 347° |
| 2026-05-06 18:25 | 46.58170 | 0.53824 | 35965 ft | 440 kts | 4° |
| 2026-05-06 18:26 | 46.64181 | 0.55571 | 35962 ft | 441 kts | 12° |
| 2026-05-06 18:26 | 46.70156 | 0.57659 | 35953 ft | 441 kts | 12° |
| 2026-05-06 18:27 | 46.76110 | 0.59687 | 35952 ft | 441 kts | 11° |
| 2026-05-06 18:27 | 46.82094 | 0.61677 | 35951 ft | 441 kts | 11° |
| 2026-05-06 18:28 | 46.88079 | 0.63659 | 35956 ft | 441 kts | 11° |
| 2026-05-06 18:28 | 46.94075 | 0.65653 | 35949 ft | 441 kts | 11° |
| 2026-05-06 18:29 | 47.00065 | 0.67650 | 35946 ft | 441 kts | 11° |
| 2026-05-06 18:29 | 47.06030 | 0.69471 | 35948 ft | 439 kts | 5° |
| 2026-05-06 18:30 | 47.12117 | 0.70147 | 35943 ft | 439 kts | 1° |
| 2026-05-06 18:30 | 47.18215 | 0.70654 | 35957 ft | 438 kts | 2° |
| 2026-05-06 18:31 | 47.24307 | 0.71240 | 35958 ft | 438 kts | 2° |
| 2026-05-06 18:31 | 47.30386 | 0.71874 | 35961 ft | 438 kts | 2° |
| 2026-05-06 18:32 | 47.36459 | 0.72515 | 35963 ft | 437 kts | 2° |
| 2026-05-06 18:32 | 47.42492 | 0.73150 | 35968 ft | 437 kts | 2° |
| 2026-05-06 18:33 | 47.48555 | 0.73824 | 35966 ft | 437 kts | 6° |
| 2026-05-06 18:33 | 47.54443 | 0.76078 | 35972 ft | 439 kts | 17° |
| 2026-05-06 18:34 | 47.60219 | 0.79029 | 35967 ft | 439 kts | 17° |
| 2026-05-06 18:34 | 47.66018 | 0.81953 | 35952 ft | 440 kts | 17° |
| 2026-05-06 18:35 | 47.71826 | 0.84827 | 35948 ft | 440 kts | 17° |
| 2026-05-06 18:35 | 47.77646 | 0.87699 | 35948 ft | 440 kts | 17° |
| 2026-05-06 18:36 | 47.83433 | 0.90565 | 35947 ft | 441 kts | 17° |
| 2026-05-06 18:36 | 47.89255 | 0.93488 | 35953 ft | 441 kts | 17° |
| 2026-05-06 18:37 | 47.95083 | 0.96443 | 35959 ft | 441 kts | 17° |